Time;durP1;ratioP1;P1;durP2;ratioP2;P2;SDS_P1;SDS_P2;PMS_P1;PMS_P2;Temp;Humidity;BMP_temperature;BMP_pressure;BME280_temperature;BME280_humidity;BME280_pressure;Samples;Min_cycle;Max_cycle;Signal;HPM_P1;HPM_P2
2023/02/03 00:02:02;;;;;;;;;13.00;12.00;;;;;-0.13;84.35;99012.59;4964805;28;102442;-69
2023/02/03 00:04:29;;;;;;;;;12.33;9.00;;;;;-0.15;84.59;99018.06;4956457;28;102030;-70
2023/02/03 00:06:56;;;;;;;;;11.00;9.00;;;;;-0.11;84.31;99021.31;4965826;28;101982;-69
2023/02/03 00:09:23;;;;;;;;;7.75;6.25;;;;;-0.04;84.01;99020.69;4957993;28;104027;-69
2023/02/03 00:11:50;;;;;;;;;9.67;9.00;;;;;-0.13;83.80;99029.41;4966079;28;102808;-70
2023/02/03 00:14:17;;;;;;;;;12.00;9.67;;;;;-0.13;83.26;99034.72;4962454;28;102166;-70
2023/02/03 00:16:44;;;;;;;;;12.33;11.33;;;;;-0.14;83.19;99043.69;4957079;28;102245;-70
2023/02/03 00:19:11;;;;;;;;;10.00;9.33;;;;;-0.09;83.34;99028.19;4952922;28;104139;-69
2023/02/03 00:21:38;;;;;;;;;12.33;10.33;;;;;-0.12;83.58;99030.25;4956578;28;102110;-70
2023/02/03 00:24:05;;;;;;;;;10.33;7.33;;;;;-0.16;84.31;99036.78;4961426;28;102014;-70
2023/02/03 00:26:32;;;;;;;;;12.67;11.00;;;;;-0.16;82.92;99034.97;4954991;28;103183;-70
2023/02/03 00:28:59;;;;;;;;;11.67;9.00;;;;;-0.07;83.35;99028.91;4953975;28;106079;-71
2023/02/03 00:31:26;;;;;;;;;11.67;11.00;;;;;-0.18;83.56;99025.44;4954381;28;102124;-70
2023/02/03 00:33:55;;;;;;;;;12.67;11.33;;;;;-0.23;84.47;99030.28;4961250;28;102066;-70
2023/02/03 00:36:24;;;;;;;;;13.33;9.00;;;;;-0.25;82.95;99030.38;4960409;28;102577;-71
2023/02/03 00:38:51;;;;;;;;;13.33;8.00;;;;;-0.26;83.70;99038.47;4957419;28;104231;-69
2023/02/03 00:41:19;;;;;;;;;6.67;6.67;;;;;-0.22;83.00;99034.59;4952837;28;102129;-70
2023/02/03 00:43:47;;;;;;;;;10.33;9.00;;;;;-0.18;83.55;99052.03;4955298;28;102224;-70
2023/02/03 00:46:15;;;;;;;;;14.33;10.67;;;;;-0.34;83.61;99033.78;4954062;28;102297;-70
2023/02/03 00:48:42;;;;;;;;;11.33;10.33;;;;;-0.23;82.83;99052.38;4955953;28;103544;-70
2023/02/03 00:51:09;;;;;;;;;11.67;11.00;;;;;-0.22;83.30;99051.38;4955781;28;102002;-68
2023/02/03 00:53:36;;;;;;;;;12.67;9.67;;;;;-0.18;83.15;99052.84;4956295;28;102081;-69
2023/02/03 00:56:03;;;;;;;;;12.67;9.67;;;;;-0.21;83.03;99062.88;4959744;28;102077;-70
2023/02/03 00:58:30;;;;;;;;;16.33;13.00;;;;;-0.30;82.77;99052.97;4955206;28;103132;-70
2023/02/03 01:00:57;;;;;;;;;8.33;8.00;;;;;-0.33;82.84;99059.38;4951706;28;102327;-69
2023/02/03 01:03:24;;;;;;;;;12.33;9.00;;;;;-0.26;82.98;99060.56;4954665;28;102211;-69
2023/02/03 01:05:51;;;;;;;;;13.00;10.33;;;;;-0.23;83.19;99055.03;4958226;28;102146;-70
2023/02/03 01:08:19;;;;;;;;;11.33;8.00;;;;;-0.22;82.54;99042.56;4950369;28;108676;-70
2023/02/03 01:10:46;;;;;;;;;21.33;15.67;;;;;-0.26;81.91;99055.25;4953410;28;102290;-70
2023/02/03 01:13:12;;;;;;;;;17.33;15.00;;;;;-0.32;82.74;99046.97;4953841;28;102125;-70
2023/02/03 01:15:47;;;;;;;;;16.00;15.00;;;;;-0.34;83.02;99051.53;4955603;28;102413;-69
2023/02/03 01:18:14;;;;;;;;;15.33;13.33;;;;;-0.28;82.52;99054.56;4951229;28;103675;-71
2023/02/03 01:20:41;;;;;;;;;14.33;12.67;;;;;-0.22;83.12;99042.56;4953356;28;102330;-70
2023/02/03 01:23:08;;;;;;;;;21.67;18.67;;;;;-0.28;82.05;99041.28;4951908;28;102334;-69
2023/02/03 01:25:35;;;;;;;;;29.33;20.00;;;;;-0.37;82.67;99047.31;4954650;28;102428;-69
2023/02/03 01:28:02;;;;;;;;;14.33;11.67;;;;;-0.29;82.61;99033.41;4953245;28;103999;-70
2023/02/03 01:30:29;;;;;;;;;11.33;9.00;;;;;-0.28;81.89;99028.00;4952626;28;102281;-69
2023/02/03 01:32:56;;;;;;;;;11.33;10.33;;;;;-0.35;81.89;99029.44;4950512;28;102401;-70
2023/02/03 01:35:23;;;;;;;;;18.00;11.00;;;;;-0.30;82.62;99047.66;4955097;28;102562;-70
2023/02/03 01:37:50;;;;;;;;;9.00;9.00;;;;;-0.26;82.02;99028.69;4955301;28;104032;-69
2023/02/03 01:40:17;;;;;;;;;13.67;10.33;;;;;-0.33;81.26;99031.97;4948234;28;102602;-71
2023/02/03 01:42:44;;;;;;;;;10.33;9.00;;;;;-0.41;81.80;99045.03;4952823;28;103277;-70
2023/02/03 01:45:13;;;;;;;;;9.00;7.00;;;;;-0.38;81.46;99034.16;4953472;28;102505;-70
2023/02/03 01:47:48;;;;;;;;;9.50;8.50;;;;;-0.38;81.00;99045.63;4953992;28;104027;-71
2023/02/03 01:50:18;;;;;;;;;7.33;6.00;;;;;-0.35;81.44;99029.44;4953421;28;103298;-69
2023/02/03 01:52:55;;;;;;;;;16.00;13.67;;;;;-0.46;81.51;99026.81;4955467;28;102245;-69
2023/02/03 01:55:30;;;;;;;;;12.33;11.33;;;;;-0.44;81.10;99014.22;4953412;28;102308;-71
2023/02/03 01:58:06;;;;;;;;;15.00;12.00;;;;;-0.49;81.57;99016.41;4955262;28;105411;-70
2023/02/03 02:00:33;;;;;;;;;8.00;6.67;;;;;-0.50;81.28;99020.03;4954199;28;102249;-70
2023/02/03 02:03:03;;;;;;;;;8.67;8.67;;;;;-0.50;79.67;99020.88;4952318;28;102085;-69
2023/02/03 02:05:35;;;;;;;;;7.00;7.00;;;;;-0.51;80.08;99013.03;4954165;28;102156;-70
2023/02/03 02:08:18;;;;;;;;;9.67;9.00;;;;;-0.71;80.59;98995.16;4952788;28;104116;-70
2023/02/03 02:11:04;;;;;;;;;13.00;11.33;;;;;-0.77;80.23;98990.34;4956560;28;101981;-69
2023/02/03 02:13:48;;;;;;;;;11.00;9.00;;;;;-0.56;81.35;99020.50;4953644;28;102302;-70
2023/02/03 02:16:57;;;;;;;;;7.00;6.00;;;;;-0.62;80.80;99007.72;4959010;28;102012;-72
2023/02/03 02:20:08;;;;;;;;;5.33;5.33;;;;;-0.51;80.50;99013.88;4950677;28;109267;-70
2023/02/03 02:23:22;;;;;;;;;9.67;6.33;;;;;-0.49;81.08;99005.78;4951832;28;102112;-69
2023/02/03 02:26:21;;;;;;;;;6.33;4.00;;;;;-0.50;80.97;99017.38;4962561;28;102238;-70
2023/02/03 02:29:03;;;;;;;;;5.00;5.00;;;;;-0.49;80.72;99016.41;4951837;28;102037;-70
2023/02/03 02:31:46;;;;;;;;;9.67;7.33;;;;;-0.47;80.02;99003.84;4952431;28;108858;-70
2023/02/03 02:34:39;;;;;;;;;11.00;7.67;;;;;-0.59;79.92;99015.47;4957105;28;102182;-70
2023/02/03 02:37:16;;;;;;;;;8.00;6.00;;;;;-0.51;81.24;99005.06;4948224;28;102270;-70
2023/02/03 02:39:57;;;;;;;;;8.33;5.33;;;;;-0.53;79.97;99012.28;4958920;28;102333;-70
2023/02/03 02:42:35;;;;;;;;;8.00;5.00;;;;;-0.55;80.50;99006.28;4947550;28;108701;-70
2023/02/03 02:45:28;;;;;;;;;14.67;8.67;;;;;-0.58;79.54;99006.50;4954570;28;102420;-72
2023/02/03 02:48:07;;;;;;;;;5.67;5.67;;;;;-0.61;80.83;99001.44;4950192;28;102390;-70
2023/02/03 02:50:40;;;;;;;;;5.00;5.00;;;;;-0.55;80.26;98979.72;4950552;28;102023;-70
2023/02/03 02:53:09;;;;;;;;;2.50;2.00;;;;;-0.48;79.87;98975.59;4956701;28;104793;-70
2023/02/03 02:55:39;;;;;;;;;2.00;2.00;;;;;-0.45;79.86;98970.03;4952042;28;104379;-71
2023/02/03 02:58:10;;;;;;;;;4.00;2.00;;;;;-0.43;80.43;98967.25;4953759;28;101989;-70
2023/02/03 03:00:40;;;;;;;;;8.33;5.00;;;;;-0.50;80.34;98965.13;4954449;28;102410;-70
2023/02/03 03:03:16;;;;;;;;;4.25;2.00;;;;;-0.47;81.30;98956.03;4950033;28;104439;-70
2023/02/03 03:05:50;;;;;;;;;8.00;5.00;;;;;-0.45;81.32;98964.72;4956123;28;102054;-69
2023/02/03 03:08:23;;;;;;;;;7.00;5.00;;;;;-0.49;81.25;98953.50;4949123;28;102175;-69
2023/02/03 03:10:52;;;;;;;;;8.00;8.00;;;;;-0.56;80.83;98964.75;4955153;28;102208;-70
2023/02/03 03:13:26;;;;;;;;;11.00;8.33;;;;;-0.57;81.55;98973.69;4952900;28;108674;-70
2023/02/03 03:15:57;;;;;;;;;11.00;8.00;;;;;-0.80;81.99;98972.84;4951269;28;102458;-70
2023/02/03 03:18:35;;;;;;;;;12.33;9.00;;;;;-0.74;82.39;98987.44;4954014;28;102273;-70
2023/02/03 03:21:05;;;;;;;;;6.33;6.33;;;;;-0.91;81.15;99000.25;4952045;28;102032;-69
2023/02/03 03:23:38;;;;;;;;;11.33;8.67;;;;;-0.91;81.13;99004.69;4952038;28;104052;-70
2023/02/03 03:26:17;;;;;;;;;7.67;6.33;;;;;-1.18;80.47;98973.19;4955496;28;103122;-70
2023/02/03 03:28:56;;;;;;;;;8.00;6.67;;;;;-1.04;80.04;99004.81;4954010;28;102127;-70
2023/02/03 03:31:23;;;;;;;;;8.33;7.00;;;;;-1.00;80.41;99000.97;4954185;28;102326;-70
2023/02/03 03:33:51;;;;;;;;;5.33;4.33;;;;;-0.92;81.10;98998.53;4958176;28;104143;-70
2023/02/03 03:36:26;;;;;;;;;7.67;4.33;;;;;-0.98;81.88;98999.00;4971455;28;102056;-71
2023/02/03 03:39:12;;;;;;;;;5.00;4.00;;;;;-1.16;80.82;98950.03;4952385;28;101903;-71
2023/02/03 03:42:07;;;;;;;;;3.33;2.00;;;;;-0.87;81.29;98986.72;4954228;28;102326;-71
2023/02/03 03:45:09;;;;;;;;;2.00;2.00;;;;;-1.11;80.60;98977.03;4951221;28;108651;-69
2023/02/03 03:47:47;;;;;;;;;6.33;4.67;;;;;-1.03;80.36;98984.41;4953610;28;102061;-69
2023/02/03 03:50:21;;;;;;;;;4.67;4.00;;;;;-0.98;81.61;98975.13;4964223;28;102064;-70
2023/02/03 03:52:51;;;;;;;;;2.67;2.00;;;;;-1.01;81.24;98959.47;4960384;28;102057;-70
2023/02/03 03:55:19;;;;;;;;;5.00;5.00;;;;;-1.00;81.43;98962.97;4947289;28;108762;-70
2023/02/03 03:58:05;;;;;;;;;4.67;4.67;;;;;-1.00;81.42;98962.97;4956362;28;102291;-69
2023/02/03 04:00:36;;;;;;;;;8.67;7.00;;;;;-1.04;81.12;98946.44;4963812;28;102100;-70
2023/02/03 04:03:27;;;;;;;;;4.00;4.00;;;;;-1.02;81.43;98948.94;4959458;28;102187;-70
2023/02/03 04:05:54;;;;;;;;;2.00;2.00;;;;;-1.03;81.36;98947.25;4957171;28;109076;-71
2023/02/03 04:08:21;;;;;;;;;1.00;1.00;;;;;-1.09;81.24;98932.69;4965427;28;102176;-71
2023/02/03 04:10:48;;;;;;;;;2.00;1.00;;;;;-1.05;81.73;98947.41;4959862;28;104521;-70
2023/02/03 04:13:15;;;;;;;;;1.33;1.33;;;;;-1.08;82.07;98944.97;4957969;28;102436;-70
2023/02/03 04:15:42;;;;;;;;;1.00;1.00;;;;;-1.03;82.51;98948.09;4950299;28;104041;-69
2023/02/03 04:18:12;;;;;;;;;1.00;1.00;;;;;-1.04;80.80;98950.91;4955659;28;103373;-69
2023/02/03 04:20:39;;;;;;;;;1.00;1.00;;;;;-1.12;81.01;98938.19;4956522;28;102181;-69
2023/02/03 04:23:07;;;;;;;;;1.67;1.00;;;;;-1.08;81.84;98949.44;4957439;28;102126;-70
2023/02/03 04:25:34;;;;;;;;;1.67;1.67;;;;;-1.08;81.87;98939.66;4954728;28;104255;-70
2023/02/03 04:28:01;;;;;;;;;2.00;0.33;;;;;-1.11;81.43;98929.28;4966575;28;102069;-69
2023/02/03 04:30:28;;;;;;;;;0.33;0.33;;;;;-1.06;81.17;98932.44;4957693;28;102335;-69
2023/02/03 04:32:55;;;;;;;;;1.00;0.00;;;;;-1.02;81.03;98948.94;4957129;28;102113;-70
2023/02/03 04:35:22;;;;;;;;;1.67;1.00;;;;;-1.04;81.88;98925.22;4959873;28;103993;-69
2023/02/03 04:37:49;;;;;;;;;1.00;1.00;;;;;-1.02;80.86;98925.06;4953434;28;102371;-68
2023/02/03 04:40:16;;;;;;;;;0.00;0.00;;;;;-1.25;81.76;98880.91;4963486;28;103289;-69
2023/02/03 04:42:43;;;;;;;;;0.00;0.00;;;;;-1.09;81.45;98914.09;4956802;28;102347;-70
2023/02/03 04:45:11;;;;;;;;;0.75;0.00;;;;;-1.02;80.77;98919.75;4948968;28;104272;-70
2023/02/03 04:47:39;;;;;;;;;0.00;0.00;;;;;-1.09;81.36;98900.84;4957025;28;102047;-69
2023/02/03 04:50:07;;;;;;;;;0.00;0.00;;;;;-1.03;80.25;98905.66;4966525;28;102564;-69
2023/02/03 04:52:34;;;;;;;;;0.00;0.00;;;;;-1.06;81.36;98894.44;4952938;28;102335;-69
2023/02/03 04:55:02;;;;;;;;;2.00;0.00;;;;;-1.04;81.33;98903.97;4952326;28;104024;-69
2023/02/03 04:57:29;;;;;;;;;1.00;0.00;;;;;-1.04;80.21;98890.72;4966113;28;102350;-69
2023/02/03 04:59:57;;;;;;;;;0.00;0.00;;;;;-1.06;80.50;98878.50;4953031;28;102366;-69
2023/02/03 05:02:23;;;;;;;;;0.50;0.50;;;;;-1.04;81.28;98882.75;4954433;28;103747;-69
2023/02/03 05:04:51;;;;;;;;;0.00;0.00;;;;;-1.08;80.73;98877.81;4978418;28;104223;-69
2023/02/03 05:07:18;;;;;;;;;0.00;0.00;;;;;-1.08;80.44;98878.63;4961118;28;102236;-69
2023/02/03 05:09:45;;;;;;;;;0.00;0.00;;;;;-1.10;81.73;98871.78;4956972;28;101984;-69
2023/02/03 05:12:12;;;;;;;;;0.00;0.00;;;;;-1.09;81.98;98878.78;4953283;28;102822;-69
2023/02/03 05:14:39;;;;;;;;;0.00;0.00;;;;;-1.11;82.23;98881.53;4954043;28;104162;-69
2023/02/03 05:17:06;;;;;;;;;0.00;0.00;;;;;-1.11;82.34;98864.75;4953339;28;102323;-69
2023/02/03 05:19:33;;;;;;;;;0.00;0.00;;;;;-1.12;82.36;98852.47;4953143;28;102166;-69
2023/02/03 05:22:00;;;;;;;;;0.00;0.00;;;;;-1.15;82.80;98837.63;4955717;28;102636;-69
2023/02/03 05:24:27;;;;;;;;;0.67;0.67;;;;;-1.20;82.20;98829.19;4951695;28;104009;-70
2023/02/03 05:26:54;;;;;;;;;0.00;0.00;;;;;-1.18;81.78;98835.25;4954606;28;102095;-71
2023/02/03 05:29:21;;;;;;;;;1.00;0.00;;;;;-1.38;82.86;98793.53;4957160;28;101921;-69
2023/02/03 05:31:48;;;;;;;;;1.00;1.00;;;;;-1.19;82.76;98830.06;4953110;28;102318;-70
2023/02/03 05:34:15;;;;;;;;;0.00;0.00;;;;;-1.22;83.29;98828.50;4950991;28;104035;-69
2023/02/03 05:36:42;;;;;;;;;1.00;0.00;;;;;-1.22;82.33;98819.69;4951389;28;103810;-70
2023/02/03 05:39:09;;;;;;;;;1.00;0.00;;;;;-1.22;82.80;98820.53;4953040;28;102266;-69
2023/02/03 05:41:54;;;;;;;;;0.00;0.00;;;;;-1.27;82.37;98820.06;4952981;28;103829;-69
2023/02/03 05:44:25;;;;;;;;;0.00;0.00;;;;;-1.30;82.93;98812.31;4963788;28;108855;-70
2023/02/03 05:46:54;;;;;;;;;1.67;1.00;;;;;-1.25;82.87;98826.06;4957162;28;102395;-69
2023/02/03 05:49:22;;;;;;;;;4.00;2.00;;;;;-1.23;84.28;98823.31;4946417;28;102081;-69
2023/02/03 05:51:52;;;;;;;;;5.00;4.00;;;;;-1.31;82.96;98817.78;4964609;28;102239;-69
2023/02/03 05:54:19;;;;;;;;;8.00;5.67;;;;;-1.24;82.95;98822.47;4955340;28;108507;-69
2023/02/03 05:56:46;;;;;;;;;4.00;4.00;;;;;-1.24;84.56;98816.31;4956959;28;102279;-68
2023/02/03 05:59:14;;;;;;;;;8.33;6.33;;;;;-1.24;83.85;98817.16;4959397;28;102241;-68
2023/02/03 06:01:40;;;;;;;;;5.33;4.00;;;;;-1.31;83.61;98794.75;4963060;28;102334;-69
2023/02/03 06:04:08;;;;;;;;;7.67;7.00;;;;;-1.26;83.53;98795.19;4956100;28;104215;-68
2023/02/03 06:06:35;;;;;;;;;7.67;7.00;;;;;-1.24;83.25;98795.09;4958449;28;102382;-69
2023/02/03 06:09:04;;;;;;;;;4.67;4.67;;;;;-1.22;83.65;98787.88;4956901;28;102038;-68
2023/02/03 06:11:32;;;;;;;;;9.33;7.67;;;;;-1.27;84.09;98774.13;4954116;28;102006;-68
2023/02/03 06:13:59;;;;;;;;;7.67;7.00;;;;;-1.22;84.05;98788.72;4949945;28;104051;-68
2023/02/03 06:16:27;;;;;;;;;5.00;5.00;;;;;-1.21;83.56;98790.38;4950686;28;102116;-68
2023/02/03 06:18:59;;;;;;;;;3.33;3.33;;;;;-1.19;83.48;98788.44;4953636;28;102521;-69
2023/02/03 06:21:27;;;;;;;;;5.67;0.67;;;;;-1.21;84.52;98779.75;4960354;28;102010;-69
2023/02/03 06:23:55;;;;;;;;;5.00;4.33;;;;;-1.23;83.80;98778.22;4953113;28;104019;-69
2023/02/03 06:26:23;;;;;;;;;2.00;2.00;;;;;-1.24;84.72;98779.16;4957287;28;102159;-69
2023/02/03 06:28:50;;;;;;;;;8.67;5.67;;;;;-1.24;84.99;98780.00;4954061;28;102307;-69
2023/02/03 06:31:17;;;;;;;;;8.33;7.00;;;;;-1.26;84.33;98776.63;4957087;28;103139;-69
2023/02/03 06:33:44;;;;;;;;;5.00;5.00;;;;;-1.25;84.83;98775.66;4952730;28;103869;-69
2023/02/03 06:36:11;;;;;;;;;7.33;5.00;;;;;-1.24;85.65;98769.41;4952781;28;102252;-68
2023/02/03 06:38:38;;;;;;;;;9.67;7.00;;;;;-1.22;86.03;98767.50;4956217;28;104296;-68
2023/02/03 06:41:05;;;;;;;;;8.67;8.67;;;;;-1.24;84.81;98758.78;4955822;28;102227;-68
2023/02/03 06:43:34;;;;;;;;;13.33;10.00;;;;;-1.22;85.88;98756.88;4950747;28;104007;-68
2023/02/03 06:46:01;;;;;;;;;9.00;8.00;;;;;-1.28;86.03;98749.41;4950444;28;103638;-69
2023/02/03 06:48:28;;;;;;;;;8.33;7.00;;;;;-1.27;86.33;98745.78;4952423;28;105127;-68
2023/02/03 06:50:55;;;;;;;;;11.00;9.00;;;;;-1.17;85.57;98752.00;4958204;28;102622;-69
2023/02/03 06:53:22;;;;;;;;;12.00;9.00;;;;;-1.12;85.44;98746.34;4954788;28;104409;-69
2023/02/03 06:55:49;;;;;;;;;10.33;9.00;;;;;-1.10;85.20;98747.91;4949699;28;103676;-69
2023/02/03 06:58:16;;;;;;;;;12.00;11.67;;;;;-1.08;84.66;98747.81;4945063;28;102485;-70
2023/02/03 07:00:43;;;;;;;;;11.00;11.00;;;;;-1.04;85.06;98741.28;4955304;28;111309;-69
2023/02/03 07:03:10;;;;;;;;;11.33;8.67;;;;;-1.02;84.54;98731.38;4951613;28;104048;-69
2023/02/03 07:05:38;;;;;;;;;10.33;9.00;;;;;-0.96;84.13;98729.06;4955003;28;102202;-68
2023/02/03 07:08:05;;;;;;;;;8.33;6.33;;;;;-0.92;84.32;98727.00;4951367;28;102368;-70
2023/02/03 07:10:32;;;;;;;;;2.00;2.00;;;;;-0.86;83.31;98730.97;4950945;28;102657;-70
2023/02/03 07:13:05;;;;;;;;;5.33;5.33;;;;;-0.83;82.72;98715.63;4949270;28;104032;-70
2023/02/03 07:15:32;;;;;;;;;12.00;8.00;;;;;-0.94;83.25;98692.59;4950898;28;102099;-69
2023/02/03 07:17:59;;;;;;;;;9.67;8.00;;;;;-0.86;81.84;98699.13;4955078;28;102332;-70
2023/02/03 07:20:27;;;;;;;;;6.33;6.33;;;;;-0.75;82.36;98699.03;4956167;28;102401;-69
2023/02/03 07:22:56;;;;;;;;;8.33;8.00;;;;;-0.77;81.97;98679.78;4955367;28;104291;-68
2023/02/03 07:25:24;;;;;;;;;11.67;7.67;;;;;-0.67;81.63;98693.94;4965987;28;105916;-69
2023/02/03 07:27:51;;;;;;;;;7.00;7.00;;;;;-0.76;80.63;98674.31;4962296;28;102395;-69
2023/02/03 07:30:18;;;;;;;;;9.00;8.33;;;;;-0.60;79.77;98681.84;4961898;28;102021;-70
2023/02/03 07:32:48;;;;;;;;;9.00;7.00;;;;;-0.53;79.86;98680.34;4957412;28;103965;-70
2023/02/03 07:35:15;;;;;;;;;7.00;7.00;;;;;-0.51;79.40;98673.09;4957300;28;102408;-69
2023/02/03 07:37:42;;;;;;;;;8.67;8.00;;;;;-0.52;79.96;98658.97;4956418;28;102024;-70
2023/02/03 07:40:11;;;;;;;;;12.67;11.00;;;;;-0.50;79.69;98657.06;4952646;28;102665;-69
2023/02/03 07:42:47;;;;;;;;;12.33;12.00;;;;;-0.46;78.22;98671.75;4948482;28;104021;-69
2023/02/03 07:45:16;;;;;;;;;12.67;11.00;;;;;-0.38;77.86;98662.28;4957644;28;102355;-70
2023/02/03 07:47:43;;;;;;;;;10.33;9.00;;;;;-0.34;78.01;98661.88;4954980;28;102118;-69
2023/02/03 07:50:11;;;;;;;;;9.00;6.67;;;;;-0.31;77.49;98658.94;4957806;28;102934;-70
2023/02/03 07:52:38;;;;;;;;;10.33;6.33;;;;;-0.26;76.88;98656.75;4956329;28;105273;-70
2023/02/03 07:55:06;;;;;;;;;12.33;10.33;;;;;-0.20;76.18;98652.72;4959265;28;102330;-69
2023/02/03 07:57:33;;;;;;;;;8.33;8.00;;;;;-0.18;75.73;98643.63;4965904;28;102391;-70
2023/02/03 08:00:00;;;;;;;;;4.00;4.00;;;;;-0.11;76.02;98636.84;4963449;28;101951;-69
2023/02/03 08:02:27;;;;;;;;;8.25;5.00;;;;;-0.05;75.26;98631.00;4956010;28;103962;-68
2023/02/03 08:04:56;;;;;;;;;7.00;5.00;;;;;0.01;76.03;98629.59;4961261;28;102958;-70
2023/02/03 08:07:23;;;;;;;;;6.00;6.00;;;;;0.04;74.61;98631.16;4959475;28;102243;-69
2023/02/03 08:09:50;;;;;;;;;9.00;8.00;;;;;0.06;74.58;98618.56;4957688;28;102423;-69
2023/02/03 08:12:17;;;;;;;;;10.75;7.50;;;;;0.13;74.78;98620.56;4959737;28;103976;-70
2023/02/03 08:14:44;;;;;;;;;6.00;6.00;;;;;0.20;74.67;98610.22;4957152;28;101971;-70
2023/02/03 08:17:11;;;;;;;;;9.00;8.00;;;;;0.22;74.32;98609.13;4955838;28;102317;-69
2023/02/03 08:19:38;;;;;;;;;7.50;6.50;;;;;0.23;72.88;98596.63;4958454;28;102309;-69
2023/02/03 08:22:05;;;;;;;;;7.50;7.50;;;;;0.23;73.00;98593.97;4955591;28;104060;-71
2023/02/03 08:24:32;;;;;;;;;12.67;10.00;;;;;0.22;72.62;98582.53;4952990;28;103583;-69
2023/02/03 08:27:00;;;;;;;;;15.67;11.00;;;;;0.28;72.82;98591.75;4956314;28;102311;-69
2023/02/03 08:29:27;;;;;;;;;8.00;6.00;;;;;0.38;73.50;98595.28;4960267;28;102322;-70
2023/02/03 08:31:54;;;;;;;;;16.67;10.67;;;;;0.38;73.43;98597.94;4955066;28;104157;-72
2023/02/03 08:34:22;;;;;;;;;11.33;7.33;;;;;0.37;72.36;98591.78;4956275;28;103747;-70
2023/02/03 08:36:48;;;;;;;;;8.75;8.00;;;;;0.43;72.55;98591.22;4956868;28;104909;-70
2023/02/03 08:39:15;;;;;;;;;7.50;6.00;;;;;0.53;73.43;98580.59;4958900;28;102385;-71
2023/02/03 08:41:42;;;;;;;;;9.50;8.50;;;;;0.54;72.47;98579.59;4958448;28;103965;-71
2023/02/03 08:44:09;;;;;;;;;9.50;6.00;;;;;0.60;72.43;98565.75;4954511;28;102468;-71
2023/02/03 08:46:42;;;;;;;;;6.00;5.50;;;;;0.67;72.13;98566.91;4970414;28;102377;-71
2023/02/03 08:49:10;;;;;;;;;5.75;5.00;;;;;0.75;71.52;98558.22;4959191;28;102907;-70
2023/02/03 08:51:37;;;;;;;;;5.00;3.00;;;;;0.86;72.52;98553.56;4952924;28;104245;-70
2023/02/03 08:54:04;;;;;;;;;5.00;5.00;;;;;0.93;71.57;98545.03;4953539;28;110365;-70
2023/02/03 08:56:32;;;;;;;;;5.75;5.50;;;;;0.97;71.20;98555.25;4952120;28;102447;-71
2023/02/03 08:59:00;;;;;;;;;10.25;9.00;;;;;0.90;72.25;98536.31;4964373;28;102197;-71
2023/02/03 09:01:27;;;;;;;;;14.33;13.00;;;;;0.90;72.00;98539.00;4957682;28;103973;-70
2023/02/03 09:03:54;;;;;;;;;17.25;12.00;;;;;0.94;73.42;98549.38;4955528;28;102394;-72
2023/02/03 09:06:22;;;;;;;;;8.50;7.00;;;;;0.88;74.24;98548.94;4967816;28;102388;-71
2023/02/03 09:08:51;;;;;;;;;9.75;6.00;;;;;0.92;75.09;98533.53;4957863;28;102927;-72
2023/02/03 09:11:19;;;;;;;;;14.25;11.50;;;;;0.93;76.15;98526.41;4956153;28;104298;-70
2023/02/03 09:13:47;;;;;;;;;17.33;14.33;;;;;0.86;77.79;98524.28;4959929;28;101972;-70
2023/02/03 09:16:16;;;;;;;;;19.00;16.00;;;;;0.88;78.42;98516.16;4954990;28;102074;-71
2023/02/03 09:18:45;;;;;;;;;10.75;9.25;;;;;0.98;79.37;98521.50;4960696;28;102445;-70
2023/02/03 09:21:12;;;;;;;;;16.67;12.00;;;;;0.96;79.66;98521.63;4959565;28;104460;-71
2023/02/03 09:24:00;;;;;;;;;15.00;13.25;;;;;0.92;81.09;98517.56;4951278;28;101976;-71
2023/02/03 09:26:27;;;;;;;;;9.00;8.50;;;;;0.87;82.53;98499.38;4962367;28;102070;-71
2023/02/03 09:28:54;;;;;;;;;11.00;9.25;;;;;0.86;83.58;98497.69;4954236;28;102450;-71
2023/02/03 09:31:21;;;;;;;;;10.00;9.00;;;;;0.82;84.39;98496.28;4962163;28;103033;-70
2023/02/03 09:33:49;;;;;;;;;6.00;5.25;;;;;0.82;84.25;98490.13;4957245;28;102142;-70
2023/02/03 09:36:15;;;;;;;;;14.00;8.25;;;;;0.78;85.17;98481.59;4956765;28;102206;-71
2023/02/03 09:38:43;;;;;;;;;16.25;13.25;;;;;0.67;85.80;98471.13;4957122;28;102011;-70
2023/02/03 09:41:11;;;;;;;;;12.75;11.75;;;;;0.57;86.37;98456.97;4957675;28;103865;-71
2023/02/03 09:44:03;;;;;;;;;6.00;6.00;;;;;0.59;87.59;98452.34;4952486;28;102279;-71
2023/02/03 09:46:41;;;;;;;;;13.25;9.00;;;;;0.58;87.41;98445.38;4949023;28;102390;-71
2023/02/03 09:49:14;;;;;;;;;13.50;11.75;;;;;0.54;88.25;98430.66;4954013;28;102320;-71
2023/02/03 09:51:54;;;;;;;;;12.00;9.75;;;;;0.59;88.86;98424.91;4954867;28;104163;-70
2023/02/03 09:54:37;;;;;;;;;12.00;9.75;;;;;0.35;88.65;98380.16;4952458;28;102408;-70
2023/02/03 09:57:12;;;;;;;;;10.25;8.75;;;;;0.50;89.15;98413.28;4942940;28;103499;-71
2023/02/03 09:59:39;;;;;;;;;12.25;9.00;;;;;0.47;89.33;98399.44;4952432;28;102805;-71
2023/02/03 10:02:34;;;;;;;;;7.50;5.00;;;;;0.53;89.88;98391.75;4957895;28;103976;-70
2023/02/03 10:05:24;;;;;;;;;12.25;9.50;;;;;0.49;89.69;98379.72;4968017;28;102447;-70
2023/02/03 10:08:17;;;;;;;;;9.00;8.50;;;;;0.47;90.18;98363.06;4953113;28;102282;-73
2023/02/03 10:11:09;;;;;;;;;14.25;8.75;;;;;-0.34;90.38;98223.59;4955561;28;102747;-71
2023/02/03 10:13:48;;;;;;;;;13.00;8.00;;;;;0.46;90.74;98350.72;4956214;28;108681;-71
2023/02/03 10:16:41;;;;;;;;;0.75;0.00;;;;;0.48;91.07;98340.81;4953249;28;101965;-71
2023/02/03 10:19:18;;;;;;;;;5.75;5.50;;;;;0.34;91.13;98299.56;4960176;28;101975;-70
2023/02/03 10:21:51;;;;;;;;;8.00;6.00;;;;;0.56;90.93;98314.31;4948435;28;102469;-71
2023/02/03 10:24:24;;;;;;;;;4.00;1.50;;;;;0.59;90.95;98300.72;4958060;28;104024;-70
2023/02/03 10:26:52;;;;;;;;;9.75;8.50;;;;;0.50;90.67;98296.25;4955004;28;102366;-70
2023/02/03 10:29:37;;;;;;;;;8.50;6.50;;;;;0.56;91.50;98287.72;4955724;28;102272;-72
2023/02/03 10:32:13;;;;;;;;;9.50;8.75;;;;;0.52;90.50;98281.00;4948219;28;102048;-70
2023/02/03 10:34:46;;;;;;;;;7.50;7.00;;;;;0.49;91.54;98277.81;4969347;28;104113;-71
2023/02/03 10:37:40;;;;;;;;;9.00;8.00;;;;;0.50;91.79;98267.00;4954327;28;101951;-71
2023/02/03 10:40:12;;;;;;;;;8.75;7.00;;;;;0.51;91.90;98265.19;4957040;28;101931;-71
2023/02/03 10:45:25;;;;;;;;;5.25;4.75;;;;;0.35;92.57;98231.25;4949604;28;108593;-72
2023/02/03 10:47:54;;;;;;;;;6.50;6.00;;;;;0.30;92.90;98239.66;4956386;28;102051;-69
2023/02/03 10:50:30;;;;;;;;;6.00;6.00;;;;;0.29;92.78;98238.00;4954974;28;102027;-71
2023/02/03 10:53:31;;;;;;;;;6.50;6.50;;;;;0.26;93.72;98227.66;4954071;28;102278;-71
2023/02/03 10:56:08;;;;;;;;;11.75;8.25;;;;;0.23;94.11;98205.81;4955417;28;108672;-70
2023/02/03 10:58:38;;;;;;;;;8.50;6.00;;;;;0.18;93.67;98195.63;4956114;28;102814;-71
2023/02/03 11:01:14;;;;;;;;;11.00;7.00;;;;;0.31;94.42;98205.94;4959692;28;102245;-71
2023/02/03 11:03:43;;;;;;;;;6.50;5.00;;;;;0.31;93.78;98177.53;4960129;28;102327;-71
2023/02/03 11:06:16;;;;;;;;;7.50;6.00;;;;;0.24;94.27;98163.16;4960527;28;103281;-70
2023/02/03 11:08:48;;;;;;;;;6.00;6.00;;;;;0.36;93.77;98167.28;4960319;28;102173;-70
2023/02/03 11:11:20;;;;;;;;;12.67;9.33;;;;;0.43;94.26;98148.91;4943982;28;101812;-70
2023/02/03 11:14:14;;;;;;;;;11.33;10.00;;;;;0.40;93.74;98130.59;4964906;28;102800;-71
2023/02/03 11:16:42;;;;;;;;;13.00;11.33;;;;;0.36;93.90;98135.38;4954908;28;108657;-72
2023/02/03 11:19:17;;;;;;;;;14.50;12.75;;;;;0.29;93.40;98107.72;4953041;28;102256;-71
2023/02/03 11:21:51;;;;;;;;;9.00;6.00;;;;;0.35;93.88;98114.25;4956294;28;102098;-71
2023/02/03 11:24:27;;;;;;;;;12.00;9.00;;;;;0.29;93.41;98094.41;4958719;28;102207;-70
2023/02/03 11:27:03;;;;;;;;;13.00;11.67;;;;;0.30;93.88;98088.13;4954795;28;109577;-70
2023/02/03 11:29:33;;;;;;;;;13.00;8.00;;;;;0.25;94.04;98086.88;4960090;28;102921;-71
2023/02/03 11:32:05;;;;;;;;;11.00;9.25;;;;;0.22;93.69;98076.56;4965239;28;102077;-70
2023/02/03 11:34:36;;;;;;;;;11.67;8.00;;;;;0.19;93.43;98068.88;4961732;28;101966;-70
2023/02/03 11:37:28;;;;;;;;;13.00;9.75;;;;;0.26;94.00;98061.97;4955450;28;103717;-71
2023/02/03 11:40:05;;;;;;;;;14.33;9.67;;;;;0.10;94.36;98035.19;4952916;28;102362;-71
2023/02/03 11:42:34;;;;;;;;;14.67;12.00;;;;;0.15;93.56;98025.81;4962580;28;102310;-71
2023/02/03 11:45:16;;;;;;;;;12.00;10.00;;;;;0.20;94.54;98023.53;4959324;28;101978;-71
2023/02/03 11:47:52;;;;;;;;;11.67;11.00;;;;;0.23;94.21;97998.47;4963162;28;103986;-71